createdAt,value
2018-02-24T00:01:28.581Z,102580.50
2018-02-24T00:03:56.274Z,102578.75
2018-02-24T00:06:23.918Z,102588.25
2018-02-24T00:08:51.917Z,102588.67
2018-02-24T00:11:20.057Z,102583.74
2018-02-24T00:13:48.048Z,102589.02
2018-02-24T00:16:16.113Z,102586.00
2018-02-24T00:18:44.150Z,102586.16
2018-02-24T00:21:11.806Z,102586.24
2018-02-24T00:23:39.469Z,102581.36
2018-02-24T00:26:07.124Z,102582.16
2018-02-24T00:28:34.814Z,102576.67
2018-02-24T00:31:02.406Z,102579.17
2018-02-24T00:33:30.016Z,102584.09
2018-02-24T00:35:57.653Z,102586.90
2018-02-24T00:38:25.324Z,102581.89
2018-02-24T00:40:53.020Z,102593.11
2018-02-24T00:43:20.632Z,102589.17
2018-02-24T00:45:48.313Z,102594.97
2018-02-24T00:48:16.037Z,102592.84
2018-02-24T00:50:43.897Z,102597.20
2018-02-24T00:53:11.544Z,102601.84
2018-02-24T00:55:39.285Z,102603.47
2018-02-24T00:58:06.946Z,102605.93
2018-02-24T01:00:34.809Z,102609.55
2018-02-24T01:03:02.414Z,102605.89
2018-02-24T01:05:30.861Z,102598.49
2018-02-24T01:07:58.466Z,102602.38
2018-02-24T01:10:26.132Z,102598.68
2018-02-24T01:12:53.812Z,102608.41
2018-02-24T01:15:21.447Z,102609.59
2018-02-24T01:17:49.029Z,102609.84
2018-02-24T01:20:16.683Z,102617.16
2018-02-24T01:22:44.437Z,102613.69
2018-02-24T01:25:12.078Z,102614.59
2018-02-24T01:27:39.736Z,102617.20
2018-02-24T01:30:07.329Z,102605.83
2018-02-24T01:32:35.004Z,102615.03
2018-02-24T01:35:02.709Z,102616.31
2018-02-24T01:37:30.392Z,102610.28
2018-02-24T01:39:58.056Z,102612.56
2018-02-24T01:42:25.667Z,102614.98
2018-02-24T01:44:53.341Z,102606.30
2018-02-24T01:47:20.960Z,102610.14
2018-02-24T01:49:48.572Z,102606.44
2018-02-24T01:52:16.269Z,102613.75
2018-02-24T01:54:44.008Z,102616.21
2018-02-24T01:57:11.634Z,102615.27
2018-02-24T01:59:39.293Z,102612.89
2018-02-24T02:02:06.920Z,102616.55
2018-02-24T02:04:34.514Z,102609.44
2018-02-24T02:07:02.418Z,102614.41
2018-02-24T02:09:30.066Z,102615.12
2018-02-24T02:11:57.689Z,102610.61
2018-02-24T02:14:25.475Z,102615.59
2018-02-24T02:16:53.086Z,102611.00
2018-02-24T02:19:20.737Z,102612.05
2018-02-24T02:21:48.395Z,102611.33
2018-02-24T02:24:15.972Z,102609.63
2018-02-24T02:26:43.581Z,102614.66
2018-02-24T02:29:11.231Z,102612.33
2018-02-24T02:31:38.845Z,102613.03
2018-02-24T02:34:06.435Z,102609.00
2018-02-24T02:36:34.130Z,102611.28
2018-02-24T02:39:01.728Z,102612.03
2018-02-24T02:41:29.448Z,102618.30
2018-02-24T02:43:57.489Z,102606.96
2018-02-24T02:46:25.180Z,102611.61
2018-02-24T02:48:53.117Z,102606.96
2018-02-24T02:51:20.715Z,102612.79
2018-02-24T02:53:48.488Z,102611.41
2018-02-24T02:56:16.201Z,102608.70
2018-02-24T02:58:43.845Z,102606.81
2018-02-24T03:01:11.448Z,102611.66
2018-02-24T03:03:39.140Z,102607.66
2018-02-24T03:06:06.883Z,102615.54
2018-02-24T03:08:34.902Z,102620.76
2018-02-24T03:11:02.672Z,102625.25
2018-02-24T03:13:30.279Z,102629.48
2018-02-24T03:15:57.963Z,102621.36
2018-02-24T03:18:26.110Z,102628.00
2018-02-24T03:20:53.791Z,102629.00
2018-02-24T03:23:21.376Z,102639.86
2018-02-24T03:25:49.080Z,102640.02
2018-02-24T03:28:16.803Z,102639.59
2018-02-24T03:30:44.425Z,102640.95
2018-02-24T03:33:12.078Z,102645.69
2018-02-24T03:35:39.659Z,102643.19
2018-02-24T03:38:07.321Z,102645.94
2018-02-24T03:40:35.028Z,102656.59
2018-02-24T03:43:02.691Z,102650.69
2018-02-24T03:45:30.442Z,102653.53
2018-02-24T03:47:58.081Z,102656.67
2018-02-24T03:50:25.781Z,102657.91
2018-02-24T03:52:53.437Z,102662.59
2018-02-24T03:55:21.124Z,102659.84
2018-02-24T03:57:49.063Z,102658.55
2018-02-24T04:00:17.002Z,102661.83
2018-02-24T04:02:44.578Z,102663.34
2018-02-24T04:05:12.178Z,102664.01
2018-02-24T04:07:39.844Z,102670.83
2018-02-24T04:10:07.672Z,102671.34
2018-02-24T04:12:35.253Z,102670.41
2018-02-24T04:15:02.911Z,102669.70
2018-02-24T04:17:30.771Z,102673.54
2018-02-24T04:19:58.370Z,102678.25
2018-02-24T04:22:25.992Z,102685.98
2018-02-24T04:24:53.606Z,102683.80
2018-02-24T04:27:21.490Z,102682.84
2018-02-24T04:29:49.072Z,102691.31
2018-02-24T04:32:16.706Z,102689.95
2018-02-24T04:34:44.344Z,102685.88
2018-02-24T04:37:11.928Z,102685.59
2018-02-24T04:39:39.526Z,102682.12
2018-02-24T04:42:07.111Z,102688.42
2018-02-24T04:44:34.711Z,102692.02
2018-02-24T04:47:02.353Z,102700.39
2018-02-24T04:49:29.950Z,102704.86
2018-02-24T04:51:57.845Z,102700.39
2018-02-24T04:54:25.697Z,102702.30
2018-02-24T04:56:53.323Z,102699.25
2018-02-24T04:59:20.918Z,102705.70
2018-02-24T05:01:48.559Z,102699.34
2018-02-24T05:04:16.180Z,102706.16
2018-02-24T05:06:43.791Z,102706.58
2018-02-24T05:09:11.413Z,102713.57
2018-02-24T05:11:38.974Z,102712.31
2018-02-24T05:14:06.610Z,102706.33
2018-02-24T05:16:34.210Z,102712.72
2018-02-24T05:19:02.138Z,102713.39
2018-02-24T05:21:29.745Z,102722.53
2018-02-24T05:23:57.382Z,102717.04
2018-02-24T05:26:25.008Z,102729.58
2018-02-24T05:28:52.800Z,102724.19
2018-02-24T05:31:20.383Z,102732.72
2018-02-24T05:33:48.023Z,102732.72
2018-02-24T05:36:15.872Z,102738.87
2018-02-24T05:38:43.534Z,102741.38
2018-02-24T05:41:11.163Z,102736.06
2018-02-24T05:43:38.777Z,102738.02
2018-02-24T05:46:06.368Z,102744.87
2018-02-24T05:48:34.104Z,102740.07
2018-02-24T05:51:02.045Z,102739.55
2018-02-24T05:53:29.650Z,102741.06
2018-02-24T05:55:57.540Z,102742.45
2018-02-24T05:58:25.149Z,102745.20
2018-02-24T06:00:52.741Z,102751.54
2018-02-24T06:03:20.380Z,102753.61
2018-02-24T06:05:47.940Z,102753.97
2018-02-24T06:08:15.565Z,102755.66
2018-02-24T06:10:43.302Z,102756.23
2018-02-24T06:13:10.926Z,102760.56
2018-02-24T06:15:38.503Z,102764.90
2018-02-24T06:18:06.125Z,102767.80
2018-02-24T06:20:33.723Z,102768.77
2018-02-24T06:23:01.659Z,102772.23
2018-02-24T06:25:29.316Z,102777.81
2018-02-24T06:27:56.944Z,102776.08
2018-02-24T06:30:24.843Z,102781.00
2018-02-24T06:32:52.487Z,102782.37
2018-02-24T06:35:20.052Z,102790.98
2018-02-24T06:37:47.668Z,102807.59
2018-02-24T06:40:15.311Z,102798.72
2018-02-24T06:42:43.165Z,102803.94
2018-02-24T06:45:10.847Z,102801.44
2018-02-24T06:47:38.552Z,102809.58
2018-02-24T06:50:06.137Z,102802.52
2018-02-24T06:52:34.001Z,102804.11
2018-02-24T06:55:01.641Z,102803.39
2018-02-24T06:57:29.344Z,102802.16
2018-02-24T06:59:56.995Z,102805.86
2018-02-24T07:02:24.850Z,102801.94
2018-02-24T07:04:52.588Z,102805.34
2018-02-24T07:07:20.256Z,102802.27
2018-02-24T07:09:47.848Z,102812.78
2018-02-24T07:12:15.444Z,102823.28
2018-02-24T07:14:45.164Z,102818.29
2018-02-24T07:17:12.998Z,102818.64
2018-02-24T07:19:40.612Z,102825.10
2018-02-24T07:22:08.246Z,102824.68
2018-02-24T07:24:36.186Z,102831.89
2018-02-24T07:27:04.054Z,102831.16
2018-02-24T07:29:31.733Z,102834.58
2018-02-24T07:31:59.360Z,102832.48
2018-02-24T07:34:26.963Z,102842.72
2018-02-24T07:36:54.580Z,102845.17
2018-02-24T07:39:22.419Z,102838.11
2018-02-24T07:41:50.003Z,102841.05
2018-02-24T07:44:17.611Z,102846.60
2018-02-24T07:46:45.247Z,102845.40
2018-02-24T07:49:12.931Z,102844.73
2018-02-24T07:51:40.562Z,102856.94
2018-02-24T07:54:08.210Z,102844.59
2018-02-24T07:56:35.837Z,102847.55
2018-02-24T07:59:03.515Z,102846.92
2018-02-24T08:01:31.120Z,102840.42
2018-02-24T08:03:58.707Z,102836.01
2018-02-24T08:06:26.335Z,102835.49
2018-02-24T08:08:53.942Z,102835.60
2018-02-24T08:11:21.591Z,102848.27
2018-02-24T08:13:49.215Z,102841.83
2018-02-24T08:16:17.156Z,102846.49
2018-02-24T08:18:45.076Z,102843.70
2018-02-24T08:21:12.710Z,102846.66
2018-02-24T08:23:40.327Z,102847.77
2018-02-24T08:26:08.024Z,102839.92
2018-02-24T08:28:35.606Z,102841.31
2018-02-24T08:31:03.246Z,102844.58
2018-02-24T08:33:30.852Z,102843.52
2018-02-24T08:35:58.679Z,102845.04
2018-02-24T08:38:26.287Z,102845.74
2018-02-24T08:40:53.951Z,102854.53
2018-02-24T08:43:21.803Z,102848.80
2018-02-24T08:45:49.654Z,102852.39
2018-02-24T08:48:17.421Z,102855.27
2018-02-24T08:50:45.010Z,102854.45
2018-02-24T08:53:12.581Z,102854.98
2018-02-24T08:55:40.231Z,102853.69
2018-02-24T08:58:08.036Z,102848.65
2018-02-24T09:00:35.683Z,102854.86
2018-02-24T09:03:03.323Z,102860.52
2018-02-24T09:05:31.187Z,102868.36
2018-02-24T09:07:59.134Z,102874.44
2018-02-24T09:10:26.749Z,102871.03
2018-02-24T09:12:54.589Z,102870.64
2018-02-24T09:15:22.238Z,102883.81
2018-02-24T09:17:49.811Z,102884.75
2018-02-24T09:20:17.462Z,102874.63
2018-02-24T09:22:45.088Z,102872.64
2018-02-24T09:25:12.676Z,102877.52
2018-02-24T09:27:40.398Z,102884.24
2018-02-24T09:30:08.324Z,102881.98
2018-02-24T09:32:35.941Z,102886.03
2018-02-24T09:35:03.675Z,102878.95
2018-02-24T09:37:31.406Z,102878.27
2018-02-24T09:39:59.055Z,102877.65
2018-02-24T09:42:26.914Z,102879.06
2018-02-24T09:44:54.782Z,102883.34
2018-02-24T09:47:22.465Z,102880.78
2018-02-24T09:49:50.098Z,102881.96
2018-02-24T09:52:17.734Z,102891.03
2018-02-24T09:54:45.638Z,102882.03
2018-02-24T09:57:13.266Z,102896.56
2018-02-24T09:59:40.861Z,102889.09
2018-02-24T10:02:08.504Z,102885.30
2018-02-24T10:04:36.111Z,102902.66
2018-02-24T10:07:03.709Z,102893.47
2018-02-24T10:09:57.258Z,102891.34
2018-02-24T10:12:24.864Z,102903.73
2018-02-24T10:14:52.479Z,102901.48
2018-02-24T10:17:20.132Z,102901.06
2018-02-24T10:19:47.714Z,102910.09
2018-02-24T10:22:15.312Z,102902.00
2018-02-24T10:24:42.978Z,102903.63
2018-02-24T10:27:10.563Z,102904.67
2018-02-24T10:29:38.212Z,102900.56
2018-02-24T10:32:05.814Z,102901.63
2018-02-24T10:34:33.403Z,102898.13
2018-02-24T10:37:01.024Z,102910.36
2018-02-24T10:39:28.756Z,102906.41
2018-02-24T10:41:56.410Z,102907.41
2018-02-24T10:44:24.088Z,102908.65
2018-02-24T10:46:51.679Z,102911.54
2018-02-24T10:49:19.316Z,102907.22
2018-02-24T10:51:46.952Z,102910.95
2018-02-24T10:54:14.606Z,102899.63
2018-02-24T10:56:42.285Z,102896.97
2018-02-24T10:59:09.876Z,102903.66
2018-02-24T11:01:37.496Z,102896.50
2018-02-24T11:04:11.674Z,102898.98
2018-02-24T11:06:39.598Z,102888.70
2018-02-24T11:09:07.659Z,102896.41
2018-02-24T11:11:35.305Z,102908.34
2018-02-24T11:14:02.941Z,102892.41
2018-02-24T11:16:30.644Z,102892.83
2018-02-24T11:18:58.246Z,102877.59
2018-02-24T11:21:25.862Z,102884.08
2018-02-24T11:23:53.563Z,102870.79
2018-02-24T11:26:21.188Z,102874.59
2018-02-24T11:28:49.069Z,102873.15
2018-02-24T11:31:17.054Z,102879.14
2018-02-24T11:33:44.706Z,102868.09
2018-02-24T11:36:12.605Z,102876.55
2018-02-24T11:38:40.306Z,102866.23
2018-02-24T11:41:08.308Z,102864.31
2018-02-24T11:43:36.083Z,102861.47
2018-02-24T11:46:03.753Z,102862.34
2018-02-24T11:48:31.382Z,102858.93
2018-02-24T11:50:59.134Z,102860.56
2018-02-24T11:53:27.016Z,102863.89
2018-02-24T11:55:54.883Z,102864.82
2018-02-24T11:58:22.564Z,102868.31
2018-02-24T12:00:50.201Z,102866.69
2018-02-24T12:03:17.760Z,102858.06
2018-02-24T12:05:45.632Z,102866.14
2018-02-24T12:08:13.303Z,102858.97
2018-02-24T12:10:40.979Z,102852.95
2018-02-24T12:13:08.555Z,102851.66
2018-02-24T12:15:36.212Z,102855.57
2018-02-24T12:18:03.827Z,102854.16
2018-02-24T12:20:31.437Z,102869.77
2018-02-24T12:22:59.092Z,102860.86
2018-02-24T12:25:37.732Z,102854.50
2018-02-24T12:28:05.371Z,102858.70
2018-02-24T12:30:32.997Z,102858.61
2018-02-24T12:33:00.609Z,102863.22
2018-02-24T12:35:28.388Z,102853.73
2018-02-24T12:37:56.331Z,102869.06
2018-02-24T12:40:24.015Z,102862.25
2018-02-24T12:42:51.954Z,102865.12
2018-02-24T12:45:19.595Z,102863.08
2018-02-24T12:47:47.220Z,102873.64
2018-02-24T12:50:14.892Z,102872.19
2018-02-24T12:52:42.515Z,102872.43
2018-02-24T12:55:10.137Z,102868.24
2018-02-24T12:57:37.769Z,102883.00
2018-02-24T13:00:05.432Z,102872.24
2018-02-24T13:02:33.365Z,102874.53
2018-02-24T13:05:06.586Z,102875.14
2018-02-24T13:07:34.297Z,102864.64
2018-02-24T13:10:02.008Z,102865.05
2018-02-24T13:12:29.635Z,102867.09
2018-02-24T13:14:57.251Z,102866.87
2018-02-24T13:17:24.914Z,102866.03
2018-02-24T13:19:52.648Z,102858.38
2018-02-24T13:22:20.283Z,102865.42
2018-02-24T13:24:47.953Z,102866.55
2018-02-24T13:27:15.612Z,102860.55
2018-02-24T13:29:43.264Z,102864.35
2018-02-24T13:32:11.248Z,102858.52
2018-02-24T13:34:38.899Z,102869.70
2018-02-24T13:37:06.604Z,102858.32
2018-02-24T13:39:34.242Z,102857.30
2018-02-24T13:42:01.894Z,102856.99
2018-02-24T13:44:29.560Z,102865.39
2018-02-24T13:46:57.624Z,102866.13
2018-02-24T13:49:25.266Z,102862.98
2018-02-24T13:51:52.956Z,102869.37
2018-02-24T13:54:20.612Z,102859.97
2018-02-24T13:56:48.232Z,102874.56
2018-02-24T13:59:16.222Z,102864.06
2018-02-24T14:01:43.843Z,102866.98
2018-02-24T14:04:11.478Z,102866.48
2018-02-24T14:06:39.170Z,102867.48
2018-02-24T14:09:06.787Z,102863.27
2018-02-24T14:11:34.411Z,102865.64
2018-02-24T14:14:02.104Z,102870.29
2018-02-24T14:16:30.081Z,102865.64
2018-02-24T14:18:58.054Z,102860.92
2018-02-24T14:21:25.783Z,102860.70
2018-02-24T14:23:53.681Z,102847.88
2018-02-24T14:26:21.289Z,102845.48
2018-02-24T14:28:48.974Z,102845.23
2018-02-24T14:31:16.649Z,102846.25
2018-02-24T14:33:44.293Z,102837.11
2018-02-24T14:36:11.953Z,102840.07
2018-02-24T14:38:39.543Z,102842.88
2018-02-24T14:41:07.170Z,102835.16
2018-02-24T14:43:34.845Z,102834.81
2018-02-24T14:46:02.510Z,102833.25
2018-02-24T14:48:30.100Z,102834.17
2018-02-24T14:50:57.771Z,102836.75
2018-02-24T14:53:25.439Z,102834.44
2018-02-24T14:55:53.382Z,102831.76
2018-02-24T14:58:21.010Z,102833.30
2018-02-24T15:00:48.675Z,102826.53
2018-02-24T15:03:16.322Z,102833.03
2018-02-24T15:05:43.949Z,102824.39
2018-02-24T15:08:11.653Z,102831.35
2018-02-24T15:10:39.333Z,102830.88
2018-02-24T15:13:07.069Z,102825.84
2018-02-24T15:15:34.941Z,102840.17
2018-02-24T15:18:03.077Z,102835.34
2018-02-24T15:20:30.803Z,102842.77
2018-02-24T15:22:58.411Z,102836.64
2018-02-24T15:25:26.079Z,102848.72
2018-02-24T15:27:53.820Z,102841.61
2018-02-24T15:30:21.450Z,102839.36
2018-02-24T15:32:49.570Z,102847.09
2018-02-24T15:35:17.319Z,102848.22
2018-02-24T15:37:45.061Z,102846.89
2018-02-24T15:40:12.725Z,102837.63
2018-02-24T15:42:40.390Z,102842.77
2018-02-24T15:45:08.049Z,102839.56
2018-02-24T15:47:35.676Z,102836.19
2018-02-24T15:50:03.343Z,102839.38
2018-02-24T15:52:31.072Z,102838.77
2018-02-24T15:54:58.718Z,102841.76
2018-02-24T15:57:26.796Z,102842.57
2018-02-24T15:59:54.514Z,102833.94
2018-02-24T16:02:22.183Z,102843.81
2018-02-24T16:04:49.990Z,102844.33
2018-02-24T16:07:17.621Z,102846.80
2018-02-24T16:09:45.373Z,102853.59
2018-02-24T16:12:13.130Z,102858.42
2018-02-24T16:14:40.774Z,102856.27
2018-02-24T16:17:08.420Z,102852.47
2018-02-24T16:19:36.092Z,102853.17
2018-02-24T16:22:04.001Z,102858.84
2018-02-24T16:24:31.688Z,102856.75
2018-02-24T16:26:59.335Z,102860.48
2018-02-24T16:29:27.234Z,102857.50
2018-02-24T16:31:54.927Z,102849.78
2018-02-24T16:34:22.553Z,102862.84
2018-02-24T16:36:50.167Z,102854.80
2018-02-24T16:39:18.187Z,102862.31
2018-02-24T16:41:45.865Z,102867.55
2018-02-24T16:44:13.506Z,102867.64
2018-02-24T16:46:41.194Z,102864.04
2018-02-24T16:49:08.870Z,102869.27
2018-02-24T16:51:36.523Z,102870.81
2018-02-24T16:54:04.227Z,102873.49
2018-02-24T16:56:31.883Z,102879.62
2018-02-24T16:58:59.519Z,102884.55
2018-02-24T17:01:27.223Z,102884.61
2018-02-24T17:03:54.880Z,102882.05
2018-02-24T17:06:22.506Z,102887.27
2018-02-24T17:08:50.199Z,102890.47
2018-02-24T17:11:17.830Z,102892.00
2018-02-24T17:13:45.514Z,102902.68
2018-02-24T17:16:13.384Z,102903.48
2018-02-24T17:18:41.113Z,102900.79
2018-02-24T17:21:08.739Z,102897.45
2018-02-24T17:23:36.435Z,102894.73
2018-02-24T17:26:04.495Z,102898.11
2018-02-24T17:28:32.108Z,102896.05
2018-02-24T17:30:59.790Z,102898.31
2018-02-24T17:33:27.463Z,102902.30
2018-02-24T17:35:55.083Z,102907.34
2018-02-24T17:38:22.808Z,102902.53
2018-02-24T17:40:50.462Z,102906.64
2018-02-24T17:43:18.092Z,102903.66
2018-02-24T17:45:45.781Z,102908.13
2018-02-24T17:48:13.859Z,102911.77
2018-02-24T17:50:41.495Z,102913.75
2018-02-24T17:53:09.252Z,102914.02
2018-02-24T17:55:36.930Z,102923.16
2018-02-24T17:58:04.578Z,102925.17
2018-02-24T18:00:32.197Z,102924.34
2018-02-24T18:02:59.889Z,102931.29
2018-02-24T18:05:27.487Z,102933.86
2018-02-24T18:07:55.102Z,102927.57
2018-02-24T18:10:22.721Z,102944.91
2018-02-24T18:12:50.387Z,102941.84
2018-02-24T18:15:38.314Z,102939.83
2018-02-24T18:18:06.383Z,102948.34
2018-02-24T18:20:34.609Z,102945.54
2018-02-24T18:23:02.765Z,102944.47
2018-02-24T18:25:30.874Z,102942.02
2018-02-24T18:27:58.503Z,102952.32
2018-02-24T18:30:26.237Z,102949.88
2018-02-24T18:32:53.888Z,102950.05
2018-02-24T18:35:21.559Z,102952.02
2018-02-24T18:37:49.266Z,102966.16
2018-02-24T18:40:16.975Z,102959.45
2018-02-24T18:42:44.598Z,102956.85
2018-02-24T18:45:12.280Z,102962.22
2018-02-24T18:47:39.874Z,102963.36
2018-02-24T18:50:07.530Z,102969.37
2018-02-24T18:52:35.169Z,102973.48
2018-02-24T18:55:02.856Z,102971.20
2018-02-24T18:57:30.507Z,102969.99
2018-02-24T18:59:58.118Z,102973.67
2018-02-24T19:02:29.609Z,102975.13
2018-02-24T19:04:57.284Z,102978.51
2018-02-24T19:07:25.112Z,102986.61
2018-02-24T19:09:52.753Z,102983.22
2018-02-24T19:12:20.586Z,102984.13
2018-02-24T19:14:48.514Z,102988.48
2018-02-24T19:17:16.187Z,102996.95
2018-02-24T19:19:43.809Z,102996.91
2018-02-24T19:22:11.439Z,102992.13
2018-02-24T19:24:39.099Z,102996.17
2018-02-24T19:27:06.900Z,102997.09
2018-02-24T19:29:35.808Z,102999.84
2018-02-24T19:32:03.451Z,102996.00
2018-02-24T19:34:31.044Z,102995.96
2018-02-24T19:36:58.950Z,102996.71
2018-02-24T19:39:26.548Z,102994.34
2018-02-24T19:41:54.172Z,102999.54
2018-02-24T19:44:21.834Z,102989.58
2018-02-24T19:46:49.664Z,102995.15
2018-02-24T19:49:17.240Z,102992.83
2018-02-24T19:51:44.930Z,102989.12
2018-02-24T19:54:12.549Z,102987.31
2018-02-24T19:56:40.176Z,102991.12
2018-02-24T19:59:07.827Z,103000.36
2018-02-24T20:01:35.469Z,102993.56
2018-02-24T20:04:03.046Z,102993.38
2018-02-24T20:06:30.678Z,102997.47
2018-02-24T20:08:58.267Z,102995.86
2018-02-24T20:11:25.972Z,102988.96
2018-02-24T20:13:53.549Z,102986.88
2018-02-24T20:16:21.166Z,102995.02
2018-02-24T20:18:48.797Z,102995.16
2018-02-24T20:21:16.418Z,102997.73
2018-02-24T20:23:43.989Z,102997.64
2018-02-24T20:26:11.592Z,103005.00
2018-02-24T20:28:39.273Z,103014.91
2018-02-24T20:31:07.105Z,103016.91
2018-02-24T20:33:36.562Z,103018.09
2018-02-24T20:36:04.213Z,103019.23
2018-02-24T20:38:31.855Z,103025.52
2018-02-24T20:40:59.517Z,103021.34
2018-02-24T20:43:27.157Z,103031.85
2018-02-24T20:45:54.801Z,103023.56
2018-02-24T20:48:22.456Z,103026.32
2018-02-24T20:50:50.055Z,103030.99
2018-02-24T20:53:17.927Z,103027.45
2018-02-24T20:55:45.598Z,103033.31
2018-02-24T20:58:13.216Z,103041.64
2018-02-24T21:00:41.986Z,103040.64
2018-02-24T21:03:09.995Z,103038.73
2018-02-24T21:05:37.581Z,103039.25
2018-02-24T21:08:05.238Z,103042.30
2018-02-24T21:10:32.897Z,103042.30
2018-02-24T21:13:01.577Z,103046.36
2018-02-24T21:15:36.169Z,103048.58
2018-02-24T21:18:03.767Z,103059.81
2018-02-24T21:20:31.363Z,103055.52
2018-02-24T21:22:58.987Z,103049.46
2018-02-24T21:25:26.960Z,103056.94
2018-02-24T21:27:55.115Z,103059.65
2018-02-24T21:30:22.720Z,103053.42
2018-02-24T21:32:50.358Z,103063.98
2018-02-24T21:35:18.016Z,103068.05
2018-02-24T21:37:45.628Z,103067.34
2018-02-24T21:40:13.238Z,103066.68
2018-02-24T21:42:40.918Z,103068.30
2018-02-24T21:45:08.589Z,103077.70
2018-02-24T21:47:36.219Z,103080.88
2018-02-24T21:50:03.851Z,103081.49
2018-02-24T21:52:31.494Z,103083.21
2018-02-24T21:54:59.103Z,103091.42
2018-02-24T21:57:26.797Z,103091.42
2018-02-24T21:59:54.394Z,103088.52
2018-02-24T22:02:22.093Z,103092.36
2018-02-24T22:04:49.760Z,103095.88
2018-02-24T22:07:17.377Z,103085.41
2018-02-24T22:09:45.260Z,103091.00
2018-02-24T22:12:12.859Z,103092.52
2018-02-24T22:14:40.427Z,103089.98
2018-02-24T22:17:08.031Z,103102.38
2018-02-24T22:19:35.667Z,103098.81
2018-02-24T22:22:03.263Z,103094.06
2018-02-24T22:24:30.881Z,103094.82
2018-02-24T22:26:58.514Z,103094.30
2018-02-24T22:29:26.108Z,103092.00
2018-02-24T22:31:53.716Z,103104.95
2018-02-24T22:34:21.343Z,103106.52
2018-02-24T22:36:48.934Z,103103.11
2018-02-24T22:39:16.554Z,103105.38
2018-02-24T22:41:44.209Z,103100.47
2018-02-24T22:44:11.804Z,103111.30
2018-02-24T22:46:39.428Z,103112.72
2018-02-24T22:49:07.039Z,103112.02
2018-02-24T22:51:34.611Z,103105.60
2018-02-24T22:54:02.227Z,103109.69
2018-02-24T22:56:29.930Z,103106.60
2018-02-24T22:58:57.625Z,103107.05
2018-02-24T23:01:25.578Z,103111.90
2018-02-24T23:03:53.155Z,103112.26
2018-02-24T23:06:20.795Z,103112.75
2018-02-24T23:08:48.386Z,103110.09
2018-02-24T23:11:15.994Z,103109.59
2018-02-24T23:13:43.656Z,103116.61
2018-02-24T23:16:11.263Z,103116.54
2018-02-24T23:18:38.861Z,103115.37
2018-02-24T23:21:06.478Z,103114.94
2018-02-24T23:23:34.158Z,103125.52
2018-02-24T23:26:01.724Z,103121.45
2018-02-24T23:28:29.295Z,103131.95
2018-02-24T23:30:56.989Z,103128.14
2018-02-24T23:33:24.586Z,103127.38
2018-02-24T23:35:52.233Z,103120.83
2018-02-24T23:38:19.831Z,103128.14
2018-02-24T23:40:47.454Z,103121.36
2018-02-24T23:43:15.101Z,103124.84
2018-02-24T23:45:42.792Z,103125.27
2018-02-24T23:48:10.386Z,103121.04
2018-02-24T23:50:38.020Z,103128.20
2018-02-24T23:53:05.664Z,103126.52
2018-02-24T23:55:33.628Z,103117.80
2018-02-24T23:58:01.504Z,103122.80
